Time;durP1;ratioP1;P1;durP2;ratioP2;P2;SDS_P1;SDS_P2;PMS_P1;PMS_P2;Temp;Humidity;BMP_temperature;BMP_pressure;BME280_temperature;BME280_humidity;BME280_pressure;Samples;Min_cycle;Max_cycle;Signal;HPM_P1;HPM_P2
2022/01/11 00:01:43;;;;;;;0.00;0.00;;;4.70;86.40;;;;;;4178252;28;20055;-62
2022/01/11 00:04:05;;;;;;;0.00;0.00;;;4.80;85.90;;;;;;4163056;28;20128;-62
2022/01/11 00:06:38;;;;;;;0.00;0.00;;;4.70;86.20;;;;;;4162161;28;20057;-61
2022/01/11 00:09:06;;;;;;;0.00;0.00;;;4.80;86.20;;;;;;4169058;28;20518;-62
2022/01/11 00:11:29;;;;;;;0.00;0.00;;;4.70;86.00;;;;;;4192000;28;20047;-62
2022/01/11 00:13:52;;;;;;;0.00;0.00;;;4.40;86.70;;;;;;4178527;28;20124;-63
2022/01/11 00:16:14;;;;;;;0.00;0.00;;;4.40;87.10;;;;;;4192102;28;20506;-62
2022/01/11 00:18:36;;;;;;;0.00;0.00;;;4.50;87.00;;;;;;4175064;28;20048;-61
2022/01/11 00:20:59;;;;;;;0.00;0.00;;;4.50;86.70;;;;;;4168234;28;20083;-61
2022/01/11 00:25:47;;;;;;;0.00;0.00;;;4.70;86.40;;;;;;4192200;28;20148;-61
2022/01/11 00:28:10;;;;;;;0.00;0.00;;;4.70;86.20;;;;;;4178379;28;20135;-62
2022/01/11 00:30:43;;;;;;;0.00;0.00;;;4.80;86.20;;;;;;4164144;28;20055;-61
2022/01/11 00:33:14;;;;;;;0.00;0.00;;;4.80;85.70;;;;;;4178398;28;20036;-62
2022/01/11 00:35:43;;;;;;;0.00;0.00;;;4.70;86.20;;;;;;4165060;28;20044;-62
2022/01/11 00:38:07;;;;;;;0.00;0.00;;;4.60;86.50;;;;;;4178165;28;20055;-61
2022/01/11 00:40:29;;;;;;;0.00;0.00;;;4.60;86.30;;;;;;4177754;28;20037;-61
2022/01/11 00:42:52;;;;;;;0.00;0.00;;;4.60;86.30;;;;;;4177992;28;20040;-61
2022/01/11 00:45:15;;;;;;;0.00;0.00;;;4.50;86.80;;;;;;4192005;28;20048;-61
2022/01/11 00:47:37;;;;;;;0.00;0.00;;;4.50;86.90;;;;;;4178269;28;20091;-61
2022/01/11 00:50:00;;;;;;;0.00;0.00;;;4.40;87.10;;;;;;4177960;28;20048;-61
2022/01/11 00:52:22;;;;;;;0.00;0.00;;;4.40;87.30;;;;;;4177741;28;20057;-61
2022/01/11 00:54:45;;;;;;;0.00;0.00;;;4.30;87.60;;;;;;4178145;28;20055;-61
2022/01/11 00:57:07;;;;;;;0.00;0.00;;;4.20;87.90;;;;;;4164016;28;20048;-61
2022/01/11 00:59:29;;;;;;;0.00;0.00;;;4.20;88.10;;;;;;4178146;28;20473;-61
2022/01/11 01:01:52;;;;;;;0.00;0.00;;;4.20;88.10;;;;;;4191551;28;20052;-61
2022/01/11 01:04:15;;;;;;;0.00;0.00;;;4.20;88.20;;;;;;4178488;28;20061;-61
2022/01/11 01:06:39;;;;;;;0.00;0.00;;;4.30;87.90;;;;;;4176290;28;20040;-60
2022/01/11 01:09:03;;;;;;;0.00;0.00;;;4.30;87.70;;;;;;4170612;28;20115;-61
2022/01/11 01:11:38;;;;;;;0.00;0.00;;;4.30;87.80;;;;;;4173110;28;20040;-60
2022/01/11 01:14:17;;;;;;;0.00;0.00;;;4.40;87.60;;;;;;4178490;28;20124;-61
2022/01/11 01:16:43;;;;;;;0.00;0.00;;;4.50;87.10;;;;;;4177867;28;20037;-61
2022/01/11 01:19:34;;;;;;;0.00;0.00;;;4.60;87.10;;;;;;4177353;28;20056;-61
2022/01/11 01:21:58;;;;;;;0.00;0.00;;;4.80;86.70;;;;;;4177453;28;20051;-61
2022/01/11 01:24:21;;;;;;;0.00;0.00;;;4.90;86.30;;;;;;4192674;28;20049;-61
2022/01/11 01:26:44;;;;;;;0.00;0.00;;;4.90;86.00;;;;;;4181131;28;20092;-61
2022/01/11 01:29:08;;;;;;;0.00;0.00;;;4.90;85.80;;;;;;4181101;28;20416;-61
2022/01/11 01:31:32;;;;;;;0.00;0.00;;;4.90;85.80;;;;;;4181623;28;20237;-61
2022/01/11 01:34:00;;;;;;;0.00;0.00;;;4.90;85.60;;;;;;4180931;28;20135;-61
2022/01/11 01:36:27;;;;;;;0.00;0.00;;;4.90;85.50;;;;;;4180644;28;20044;-61
2022/01/11 01:39:01;;;;;;;0.00;0.00;;;4.90;85.30;;;;;;4181111;28;20120;-61
2022/01/11 01:41:27;;;;;;;0.00;0.00;;;4.90;85.30;;;;;;4181722;28;20038;-61
2022/01/11 01:43:55;;;;;;;0.00;0.00;;;4.90;85.50;;;;;;4181050;28;20128;-61
2022/01/11 01:46:18;;;;;;;0.00;0.00;;;4.80;85.40;;;;;;4166405;28;20415;-61
2022/01/11 01:48:58;;;;;;;0.00;0.00;;;4.80;85.40;;;;;;4181840;28;20049;-61
2022/01/11 01:51:29;;;;;;;0.00;0.00;;;4.90;85.30;;;;;;4181511;28;20433;-61
2022/01/11 01:54:04;;;;;;;0.00;0.00;;;4.80;85.30;;;;;;4180653;28;20559;-61
2022/01/11 01:56:28;;;;;;;0.00;0.00;;;4.70;85.60;;;;;;4180369;28;20049;-61
2022/01/11 01:58:56;;;;;;;0.00;0.00;;;4.70;85.70;;;;;;4181741;28;20040;-58
2022/01/11 02:01:21;;;;;;;0.00;0.00;;;4.70;85.80;;;;;;4179852;28;20230;-61
2022/01/11 02:03:45;;;;;;;0.00;0.00;;;4.70;85.90;;;;;;4180565;28;20044;-61
2022/01/11 02:06:18;;;;;;;0.00;0.00;;;4.70;85.90;;;;;;4180481;28;20040;-61
2022/01/11 02:08:47;;;;;;;0.00;0.00;;;4.60;86.00;;;;;;4180157;28;20588;-61
2022/01/11 02:11:13;;;;;;;0.00;0.00;;;4.50;86.30;;;;;;4180156;28;20136;-61
2022/01/11 02:13:37;;;;;;;0.00;0.00;;;4.40;86.50;;;;;;4180319;28;20068;-61
2022/01/11 02:16:08;;;;;;;0.00;0.00;;;4.40;86.70;;;;;;4180453;28;20132;-61
2022/01/11 02:18:31;;;;;;;0.00;0.00;;;4.50;86.70;;;;;;4179952;28;20053;-61
2022/01/11 02:21:00;;;;;;;0.00;0.00;;;4.40;86.60;;;;;;4180049;28;20099;-61
2022/01/11 02:23:28;;;;;;;0.00;0.00;;;4.40;86.80;;;;;;4180277;28;20068;-61
2022/01/11 02:25:52;;;;;;;0.00;0.00;;;4.50;86.70;;;;;;4180355;28;20631;-61
2022/01/11 02:28:21;;;;;;;0.00;0.00;;;4.30;86.60;;;;;;4179963;28;20049;-61
2022/01/11 02:30:46;;;;;;;0.00;0.00;;;4.20;87.20;;;;;;4179260;28;20399;-61
2022/01/11 02:33:32;;;;;;;0.00;0.00;;;4.10;88.50;;;;;;4177981;28;20565;-61
2022/01/11 02:36:18;;;;;;;0.00;0.00;;;4.00;88.40;;;;;;4178439;28;20111;-61
2022/01/11 02:38:41;;;;;;;0.00;0.00;;;4.00;88.70;;;;;;4165405;28;20529;-61
2022/01/11 02:41:05;;;;;;;0.00;0.00;;;3.90;89.80;;;;;;4178731;28;20045;-61
2022/01/11 02:43:29;;;;;;;0.00;0.00;;;3.80;89.80;;;;;;4179034;28;20102;-61
2022/01/11 02:45:52;;;;;;;0.00;0.00;;;3.70;90.10;;;;;;4178993;28;20049;-62
2022/01/11 02:48:16;;;;;;;0.00;0.00;;;3.70;90.20;;;;;;4192603;28;20055;-60
2022/01/11 02:50:39;;;;;;;0.00;0.00;;;3.70;90.20;;;;;;4179109;28;20154;-61
2022/01/11 02:53:01;;;;;;;0.00;0.00;;;3.70;90.30;;;;;;4165188;28;20125;-61
2022/01/11 02:55:24;;;;;;;0.00;0.00;;;3.70;90.40;;;;;;4179158;28;20479;-61
2022/01/11 02:57:46;;;;;;;0.00;0.00;;;3.70;90.30;;;;;;4192961;28;20078;-61
2022/01/11 03:00:17;;;;;;;0.00;0.00;;;3.80;90.20;;;;;;4178396;28;20048;-61
2022/01/11 03:02:39;;;;;;;0.00;0.00;;;3.80;90.10;;;;;;4147606;28;20073;-61
2022/01/11 03:05:08;;;;;;;0.00;0.00;;;3.80;90.00;;;;;;4162463;28;20041;-62
2022/01/11 03:07:30;;;;;;;0.00;0.00;;;3.80;89.90;;;;;;4161330;28;20112;-62
2022/01/11 03:10:38;;;;;;;0.00;0.00;;;3.70;90.10;;;;;;4176167;28;20055;-62
2022/01/11 03:12:43;;;;;;;0.00;0.00;;;3.70;90.10;;;;;;4178216;28;20581;-61
2022/01/11 03:15:06;;;;;;;0.00;0.00;;;3.80;90.00;;;;;;4191522;28;20571;-61
2022/01/11 03:17:29;;;;;;;0.00;0.00;;;3.80;89.90;;;;;;4164761;28;20053;-60
2022/01/11 03:19:54;;;;;;;0.00;0.00;;;3.70;89.80;;;;;;4176707;28;20136;-59
2022/01/11 03:22:17;;;;;;;0.00;0.00;;;3.60;90.10;;;;;;4191855;28;20114;-59
2022/01/11 03:24:40;;;;;;;0.00;0.00;;;3.50;90.20;;;;;;4164712;28;20046;-60
2022/01/11 03:27:05;;;;;;;0.00;0.00;;;3.50;90.20;;;;;;4192488;28;20055;-60
2022/01/11 03:29:27;;;;;;;0.00;0.00;;;3.40;90.40;;;;;;4164528;28;20045;-58
2022/01/11 03:31:51;;;;;;;0.00;0.00;;;3.40;90.40;;;;;;4119848;28;1274425;-59
2022/01/11 03:34:18;;;;;;;0.00;0.00;;;3.60;90.30;;;;;;4192868;28;20048;-58
2022/01/11 03:36:40;;;;;;;0.00;0.00;;;3.50;90.30;;;;;;4193249;28;20871;-59
2022/01/11 03:39:03;;;;;;;0.00;0.00;;;3.60;90.30;;;;;;4165462;28;20133;-59
2022/01/11 03:41:25;;;;;;;0.00;0.00;;;3.60;90.20;;;;;;4179052;28;20386;-59
2022/01/11 03:43:48;;;;;;;0.00;0.00;;;3.60;90.30;;;;;;4179043;28;20052;-60
2022/01/11 03:46:16;;;;;;;0.00;0.00;;;3.70;90.20;;;;;;4178252;28;20478;-59
2022/01/11 03:48:39;;;;;;;0.00;0.00;;;3.50;90.30;;;;;;4178981;28;20418;-57
2022/01/11 03:51:02;;;;;;;0.00;0.00;;;3.40;90.50;;;;;;4192777;28;20075;-59
2022/01/11 03:53:49;;;;;;;0.00;0.00;;;3.40;90.60;;;;;;4178862;28;20090;-60
2022/01/11 03:56:21;;;;;;;0.00;0.00;;;3.40;90.60;;;;;;4178611;28;20124;-59
2022/01/11 03:58:53;;;;;;;0.00;0.00;;;3.40;90.70;;;;;;4178708;28;20144;-59
2022/01/11 04:01:15;;;;;;;0.00;0.00;;;3.60;90.60;;;;;;4177771;28;20045;-58
2022/01/11 04:03:38;;;;;;;0.00;0.00;;;3.50;90.40;;;;;;4164967;28;20084;-56
2022/01/11 04:06:00;;;;;;;0.00;0.00;;;3.50;90.40;;;;;;4164826;28;20041;-57
2022/01/11 04:08:23;;;;;;;0.00;0.00;;;3.60;90.50;;;;;;4164614;28;20047;-59
2022/01/11 04:10:47;;;;;;;0.00;0.00;;;3.60;90.40;;;;;;4164824;28;20048;-59
2022/01/11 04:13:10;;;;;;;0.00;0.00;;;3.70;90.30;;;;;;4178565;28;20048;-59
2022/01/11 04:15:33;;;;;;;0.00;0.00;;;3.50;90.30;;;;;;4167325;28;20057;-59
2022/01/11 04:17:58;;;;;;;0.00;0.00;;;3.40;90.60;;;;;;4190604;28;20045;-58
2022/01/11 04:20:22;;;;;;;0.00;0.00;;;3.40;90.70;;;;;;4178080;28;20061;-59
2022/01/11 04:22:46;;;;;;;0.00;0.00;;;3.30;90.80;;;;;;4159926;28;20053;-59
2022/01/11 04:25:09;;;;;;;0.00;0.00;;;3.20;90.90;;;;;;4161915;28;20045;-59
2022/01/11 04:27:32;;;;;;;0.00;0.00;;;3.30;91.00;;;;;;4172938;28;20056;-59
2022/01/11 04:29:56;;;;;;;0.00;0.00;;;3.30;90.90;;;;;;4161796;28;20037;-58
2022/01/11 04:32:18;;;;;;;0.00;0.00;;;3.30;90.90;;;;;;4163868;28;20057;-58
2022/01/11 04:34:41;;;;;;;0.00;0.00;;;3.30;91.00;;;;;;4178648;28;20129;-57
2022/01/11 04:37:05;;;;;;;0.00;0.00;;;3.30;91.00;;;;;;4164601;28;20045;-58
2022/01/11 04:39:31;;;;;;;0.00;0.00;;;3.50;90.80;;;;;;4164724;28;20048;-58
2022/01/11 04:41:53;;;;;;;0.00;0.00;;;3.60;90.90;;;;;;4164184;28;20049;-58
2022/01/11 04:44:19;;;;;;;0.00;0.00;;;3.60;90.40;;;;;;4177819;28;20071;-60
2022/01/11 04:46:43;;;;;;;0.00;0.00;;;3.60;90.40;;;;;;4178288;28;20098;-59
2022/01/11 04:49:06;;;;;;;0.00;0.00;;;3.60;90.50;;;;;;4178242;28;20041;-60
2022/01/11 04:51:29;;;;;;;0.00;0.00;;;3.70;90.30;;;;;;4163935;28;20056;-60
2022/01/11 04:53:52;;;;;;;0.00;0.00;;;3.80;90.20;;;;;;4164180;28;20085;-60
2022/01/11 04:56:17;;;;;;;0.00;0.00;;;3.90;90.10;;;;;;4163070;28;20091;-60
2022/01/11 04:58:40;;;;;;;0.00;0.00;;;4.00;89.90;;;;;;4161541;28;20049;-60
2022/01/11 05:01:04;;;;;;;0.00;0.00;;;4.10;89.70;;;;;;4168625;28;20052;-60
2022/01/11 05:03:28;;;;;;;0.00;0.00;;;4.10;89.40;;;;;;4163867;28;20128;-61
2022/01/11 05:05:56;;;;;;;0.00;0.00;;;4.20;89.20;;;;;;4177932;28;20095;-60
2022/01/11 05:08:18;;;;;;;0.00;0.00;;;4.10;89.20;;;;;;4177421;28;20651;-61
2022/01/11 05:10:43;;;;;;;0.00;0.00;;;4.20;89.20;;;;;;4173292;28;20463;-61
2022/01/11 05:13:09;;;;;;;0.00;0.00;;;4.00;89.30;;;;;;4175332;28;20502;-60
2022/01/11 05:15:31;;;;;;;0.00;0.00;;;3.80;89.90;;;;;;4179319;28;20122;-60
2022/01/11 05:17:55;;;;;;;0.00;0.00;;;3.60;90.20;;;;;;4178041;28;20041;-60
2022/01/11 05:20:19;;;;;;;0.00;0.00;;;3.60;90.50;;;;;;4177635;28;20053;-60
2022/01/11 05:22:42;;;;;;;0.00;0.00;;;3.80;90.20;;;;;;4150123;28;20042;-61
2022/01/11 05:25:07;;;;;;;0.00;0.00;;;3.90;90.00;;;;;;4163833;28;20132;-61
2022/01/11 05:27:30;;;;;;;0.00;0.00;;;3.90;89.70;;;;;;4177835;28;20465;-60
2022/01/11 05:29:54;;;;;;;0.00;0.00;;;3.90;89.50;;;;;;4163745;28;20045;-60
2022/01/11 05:32:17;;;;;;;0.00;0.00;;;3.80;89.70;;;;;;4161774;28;20089;-61
2022/01/11 05:34:39;;;;;;;0.00;0.00;;;3.80;89.50;;;;;;4164082;28;20051;-61
2022/01/11 05:37:03;;;;;;;0.00;0.00;;;3.90;89.30;;;;;;4164365;28;20052;-61
2022/01/11 05:39:26;;;;;;;0.00;0.00;;;3.90;89.00;;;;;;4178230;28;20067;-60
2022/01/11 05:41:49;;;;;;;0.00;0.00;;;3.90;88.80;;;;;;4177947;28;20123;-59
2022/01/11 05:44:15;;;;;;;0.00;0.00;;;3.80;89.00;;;;;;4177715;28;20045;-60
2022/01/11 05:46:38;;;;;;;0.00;0.00;;;3.70;89.20;;;;;;4178040;28;20136;-60
2022/01/11 05:49:01;;;;;;;0.00;0.00;;;3.80;89.30;;;;;;4178146;28;20048;-60
2022/01/11 05:51:26;;;;;;;0.00;0.00;;;3.80;89.20;;;;;;4177906;28;20060;-60
2022/01/11 05:53:50;;;;;;;0.00;0.00;;;3.70;89.30;;;;;;4191970;28;20106;-60
2022/01/11 05:56:12;;;;;;;0.00;0.00;;;3.70;89.30;;;;;;4178030;28;20574;-60
2022/01/11 05:58:35;;;;;;;0.00;0.00;;;3.70;89.30;;;;;;4178129;28;20099;-61
2022/01/11 06:00:59;;;;;;;0.00;0.00;;;3.80;89.20;;;;;;4176996;28;20144;-60
2022/01/11 06:03:27;;;;;;;0.00;0.00;;;4.00;88.20;;;;;;4198019;28;20104;-59
2022/01/11 06:05:50;;;;;;;0.00;0.00;;;4.00;88.30;;;;;;4177699;28;20052;-60
2022/01/11 06:08:16;;;;;;;0.00;0.00;;;4.00;88.70;;;;;;4177675;28;20148;-61
2022/01/11 06:10:41;;;;;;;0.00;0.00;;;3.90;88.70;;;;;;4179355;28;20532;-60
2022/01/11 06:13:04;;;;;;;0.00;0.00;;;3.80;89.10;;;;;;4194894;28;20135;-61
2022/01/11 06:15:29;;;;;;;0.00;0.00;;;3.80;89.20;;;;;;4180832;28;20132;-60
2022/01/11 06:17:53;;;;;;;0.00;0.00;;;3.80;89.50;;;;;;4166827;28;20056;-62
2022/01/11 06:20:16;;;;;;;0.00;0.00;;;3.80;90.00;;;;;;4180180;28;20090;-59
2022/01/11 06:22:39;;;;;;;0.00;0.00;;;3.80;89.50;;;;;;4180648;28;20522;-61
2022/01/11 06:25:04;;;;;;;0.00;0.00;;;3.80;89.50;;;;;;4166912;28;20502;-60
2022/01/11 06:27:26;;;;;;;0.00;0.00;;;4.00;89.30;;;;;;4194532;28;20383;-60
2022/01/11 06:29:49;;;;;;;0.00;0.00;;;4.10;89.00;;;;;;4167113;28;20049;-59
2022/01/11 06:32:12;;;;;;;0.00;0.00;;;4.30;88.30;;;;;;4191462;28;20052;-60
2022/01/11 06:34:34;;;;;;;0.00;0.00;;;4.30;88.00;;;;;;4163614;28;20081;-60
2022/01/11 06:36:59;;;;;;;0.00;0.00;;;4.40;88.10;;;;;;4164143;28;20076;-60
2022/01/11 06:39:26;;;;;;;0.00;0.00;;;4.30;88.00;;;;;;4149973;28;20074;-61
2022/01/11 06:41:49;;;;;;;0.00;0.00;;;4.20;88.20;;;;;;4163705;28;20060;-62
2022/01/11 06:44:11;;;;;;;0.00;0.00;;;4.10;88.30;;;;;;4163590;28;20056;-61
2022/01/11 06:46:35;;;;;;;0.00;0.00;;;4.20;88.30;;;;;;4153570;28;20045;-60
2022/01/11 06:49:01;;;;;;;0.00;0.00;;;4.30;87.90;;;;;;4166685;28;20072;-61
2022/01/11 06:51:23;;;;;;;0.00;0.00;;;4.30;87.30;;;;;;4180048;28;20472;-59
2022/01/11 06:53:46;;;;;;;0.00;0.00;;;4.30;87.10;;;;;;4180249;28;20040;-59
2022/01/11 06:56:09;;;;;;;0.00;0.00;;;4.20;87.20;;;;;;4180366;28;20053;-59
2022/01/11 06:58:32;;;;;;;0.00;0.00;;;4.10;87.20;;;;;;4179814;28;20478;-59
2022/01/11 07:00:56;;;;;;;0.00;0.00;;;4.10;87.10;;;;;;4193162;28;20049;-59
2022/01/11 07:03:21;;;;;;;0.00;0.00;;;4.10;87.30;;;;;;4180341;28;20049;-59
2022/01/11 07:05:48;;;;;;;0.00;0.00;;;4.00;87.10;;;;;;4180189;28;20059;-60
2022/01/11 07:08:12;;;;;;;0.00;0.00;;;4.00;87.10;;;;;;4165988;28;20049;-59
2022/01/11 07:10:36;;;;;;;0.00;0.00;;;4.00;87.00;;;;;;4179731;28;20041;-59
2022/01/11 07:13:00;;;;;;;0.00;0.00;;;4.00;86.80;;;;;;4166043;28;20427;-60
2022/01/11 07:15:22;;;;;;;0.00;0.00;;;4.00;86.60;;;;;;4179994;28;20080;-58
2022/01/11 07:17:45;;;;;;;0.00;0.00;;;4.00;86.40;;;;;;4180083;28;20461;-59
2022/01/11 07:20:08;;;;;;;0.00;0.00;;;4.00;86.50;;;;;;4165871;28;20541;-59
2022/01/11 07:22:33;;;;;;;0.00;0.00;;;4.10;86.40;;;;;;4178289;28;20487;-59
2022/01/11 07:24:56;;;;;;;0.00;0.00;;;4.20;86.10;;;;;;4179220;28;20485;-59
2022/01/11 07:27:18;;;;;;;0.00;0.00;;;4.30;85.70;;;;;;4142917;28;20050;-58
2022/01/11 07:29:42;;;;;;;0.00;0.00;;;4.40;86.10;;;;;;4147909;28;20042;-57
2022/01/11 07:32:04;;;;;;;0.00;0.00;;;4.50;85.20;;;;;;4161775;28;20534;-59
2022/01/11 07:34:27;;;;;;;0.00;0.00;;;4.60;85.00;;;;;;4162864;28;20137;-58
2022/01/11 07:36:49;;;;;;;0.00;0.00;;;4.60;84.40;;;;;;4149494;28;20053;-60
2022/01/11 07:39:12;;;;;;;0.00;0.00;;;4.50;83.70;;;;;;4163067;28;20112;-56
2022/01/11 07:41:35;;;;;;;0.00;0.00;;;4.50;83.70;;;;;;4148946;28;20057;-58
2022/01/11 07:44:18;;;;;;;0.00;0.00;;;4.60;83.50;;;;;;4162551;28;20103;-58
2022/01/11 07:46:43;;;;;;;0.00;0.00;;;4.30;83.50;;;;;;4149163;28;20058;-60
2022/01/11 07:49:35;;;;;;;0.00;0.00;;;4.20;83.80;;;;;;4144046;28;20573;-53
2022/01/11 07:51:59;;;;;;;0.00;0.00;;;4.30;84.40;;;;;;4162743;28;20045;-51
2022/01/11 07:54:23;;;;;;;0.00;0.00;;;4.40;84.90;;;;;;4147817;28;20111;-56
2022/01/11 07:56:46;;;;;;;0.00;0.00;;;4.50;84.80;;;;;;4162995;28;20143;-58
2022/01/11 07:59:11;;;;;;;0.00;0.00;;;4.60;84.80;;;;;;4162951;28;20049;-57
2022/01/11 08:01:38;;;;;;;0.00;0.00;;;4.70;84.40;;;;;;4149999;28;20104;-59
2022/01/11 08:04:01;;;;;;;0.00;0.00;;;4.80;84.10;;;;;;4164489;28;20133;-57
2022/01/11 08:06:27;;;;;;;0.00;0.00;;;5.00;83.80;;;;;;4150118;28;20054;-58
2022/01/11 08:09:05;;;;;;;0.00;0.00;;;5.10;83.10;;;;;;4166471;28;20585;-57
2022/01/11 08:11:29;;;;;;;0.00;0.00;;;5.20;83.00;;;;;;4161892;28;20045;-57
2022/01/11 08:13:52;;;;;;;0.00;0.00;;;5.10;82.30;;;;;;4156626;28;20568;-60
2022/01/11 08:16:15;;;;;;;0.00;0.00;;;5.20;81.90;;;;;;4164983;28;20138;-60
2022/01/11 08:18:37;;;;;;;0.00;0.00;;;5.30;81.90;;;;;;4165329;28;20609;-56
2022/01/11 08:21:00;;;;;;;0.00;0.00;;;5.30;81.60;;;;;;4178632;28;20045;-58
2022/01/11 08:23:26;;;;;;;0.00;0.00;;;5.30;81.60;;;;;;4161938;28;20569;-57
2022/01/11 08:25:49;;;;;;;0.00;0.00;;;5.40;80.60;;;;;;4162328;28;20100;-58
2022/01/11 08:28:14;;;;;;;0.00;0.00;;;5.50;80.80;;;;;;4162130;28;20045;-58
2022/01/11 08:30:44;;;;;;;0.00;0.00;;;6.00;80.30;;;;;;4147746;28;20053;-57
2022/01/11 08:33:12;;;;;;;0.00;0.00;;;6.30;79.60;;;;;;4160501;28;20050;-56
2022/01/11 08:35:36;;;;;;;0.00;0.00;;;6.60;77.50;;;;;;4148382;28;20053;-57
2022/01/11 08:38:01;;;;;;;0.00;0.00;;;6.70;77.30;;;;;;4175694;28;20045;-56
2022/01/11 08:40:26;;;;;;;0.00;0.00;;;6.80;76.60;;;;;;4147986;28;20152;-57
2022/01/11 08:42:54;;;;;;;0.00;0.00;;;7.00;76.00;;;;;;4148175;28;20464;-58
2022/01/11 08:45:17;;;;;;;0.00;0.00;;;7.10;75.50;;;;;;4162019;28;20048;-58
2022/01/11 08:47:42;;;;;;;0.00;0.00;;;7.10;74.70;;;;;;4162289;28;20037;-58
2022/01/11 08:50:10;;;;;;;0.00;0.00;;;7.40;74.20;;;;;;4148372;28;20479;-57
2022/01/11 08:52:37;;;;;;;0.00;0.00;;;7.30;74.00;;;;;;4162471;28;20045;-58
2022/01/11 08:54:59;;;;;;;0.00;0.00;;;7.40;73.60;;;;;;4162095;28;20510;-57
2022/01/11 08:57:24;;;;;;;0.00;0.00;;;7.40;73.00;;;;;;4148443;28;20049;-56
2022/01/11 08:59:47;;;;;;;0.00;0.00;;;7.20;73.30;;;;;;4162063;28;20065;-56
2022/01/11 09:02:10;;;;;;;0.00;0.00;;;7.20;73.80;;;;;;4161386;28;20045;-57
2022/01/11 09:04:36;;;;;;;0.00;0.00;;;7.30;73.60;;;;;;4174821;28;20522;-57
2022/01/11 09:07:06;;;;;;;0.00;0.00;;;7.50;73.10;;;;;;4162008;28;20569;-57
2022/01/11 09:09:31;;;;;;;0.00;0.00;;;7.70;73.10;;;;;;4161677;28;20458;-57
2022/01/11 09:11:58;;;;;;;0.00;0.00;;;7.90;72.80;;;;;;4161123;28;20054;-58
2022/01/11 09:14:21;;;;;;;0.00;0.00;;;7.80;72.20;;;;;;4147612;28;20081;-58
2022/01/11 09:16:45;;;;;;;0.00;0.00;;;7.90;71.60;;;;;;4148118;28;20092;-58
2022/01/11 09:19:07;;;;;;;0.00;0.00;;;8.00;70.90;;;;;;4148031;28;20128;-58
2022/01/11 09:21:34;;;;;;;0.00;0.00;;;8.20;70.60;;;;;;4161494;28;20050;-58
2022/01/11 09:23:57;;;;;;;0.00;0.00;;;8.40;70.40;;;;;;4161471;28;20056;-58
2022/01/11 09:26:25;;;;;;;0.00;0.00;;;8.40;70.40;;;;;;4133400;28;20054;-58
2022/01/11 09:28:52;;;;;;;0.00;0.00;;;8.20;71.10;;;;;;4148679;28;20087;-58
2022/01/11 09:31:16;;;;;;;0.00;0.00;;;8.30;72.10;;;;;;4161632;28;20053;-58
2022/01/11 09:33:38;;;;;;;0.00;0.00;;;8.50;71.70;;;;;;4147625;28;20054;-58
2022/01/11 09:36:02;;;;;;;0.00;0.00;;;8.70;71.80;;;;;;4161749;28;20041;-58
2022/01/11 09:38:24;;;;;;;0.00;0.00;;;9.00;70.40;;;;;;4147528;28;20046;-58
2022/01/11 09:40:52;;;;;;;0.00;0.00;;;9.00;69.20;;;;;;4189100;28;20048;-58
2022/01/11 09:43:18;;;;;;;0.00;0.00;;;9.10;69.30;;;;;;4177532;28;20124;-58
2022/01/11 09:45:41;;;;;;;0.00;0.00;;;9.00;70.00;;;;;;4165952;28;20700;-57
2022/01/11 09:48:05;;;;;;;0.00;0.00;;;9.20;69.40;;;;;;4167494;28;20045;-58
2022/01/11 09:50:33;;;;;;;0.00;0.00;;;9.20;68.90;;;;;;4166609;28;20132;-59
2022/01/11 09:53:01;;;;;;;0.00;0.00;;;9.30;68.70;;;;;;4181065;28;20057;-58
2022/01/11 09:55:26;;;;;;;0.00;0.00;;;9.70;67.70;;;;;;4180984;28;20515;-59
2022/01/11 09:57:49;;;;;;;0.00;0.00;;;10.10;67.10;;;;;;4181231;28;20069;-55
2022/01/11 10:00:31;;;;;;;0.00;0.00;;;10.00;65.80;;;;;;4163942;28;20208;-58
2022/01/11 10:03:14;;;;;;;0.00;0.00;;;10.10;65.90;;;;;;4179204;28;20045;-59
2022/01/11 10:05:49;;;;;;;0.00;0.00;;;10.00;65.50;;;;;;4178150;28;20060;-59
2022/01/11 10:08:27;;;;;;;0.00;0.00;;;10.00;65.60;;;;;;4178170;28;20064;-60
2022/01/11 10:10:52;;;;;;;0.00;0.00;;;10.30;64.50;;;;;;4169947;28;20044;-58
2022/01/11 10:13:40;;;;;;;0.00;0.00;;;10.10;64.30;;;;;;4181604;28;20076;-58
2022/01/11 10:16:25;;;;;;;0.00;0.00;;;10.20;64.20;;;;;;4166987;28;20072;-57
2022/01/11 10:18:55;;;;;;;0.00;0.00;;;10.40;63.70;;;;;;4166597;28;20392;-59
2022/01/11 10:21:31;;;;;;;0.00;0.00;;;10.60;62.80;;;;;;4180382;28;20060;-59
2022/01/11 10:23:53;;;;;;;0.00;0.00;;;10.40;61.70;;;;;;4166837;28;20056;-58
2022/01/11 10:26:45;;;;;;;0.00;0.00;;;10.40;60.80;;;;;;4180138;28;20091;-59
2022/01/11 10:29:32;;;;;;;0.00;0.00;;;10.60;60.30;;;;;;4164013;28;20080;-59
2022/01/11 10:32:33;;;;;;;0.00;0.00;;;10.60;59.10;;;;;;4149570;28;20137;-60
2022/01/11 10:35:12;;;;;;;0.00;0.00;;;10.70;59.60;;;;;;4149804;28;20042;-59
2022/01/11 10:38:00;;;;;;;0.00;0.00;;;10.80;58.80;;;;;;4177897;28;20073;-59
2022/01/11 10:40:34;;;;;;;0.00;0.00;;;10.70;58.60;;;;;;4148772;28;20041;-60
2022/01/11 10:43:07;;;;;;;0.00;0.00;;;11.10;57.90;;;;;;4150057;28;20073;-60
2022/01/11 10:45:33;;;;;;;0.00;0.00;;;11.20;55.90;;;;;;4150119;28;20045;-60
2022/01/11 10:48:07;;;;;;;0.00;0.00;;;10.70;57.00;;;;;;4163993;28;20140;-59
2022/01/11 10:50:37;;;;;;;0.00;0.00;;;11.10;56.10;;;;;;4149828;28;20092;-61
2022/01/11 10:53:11;;;;;;;0.00;0.00;;;11.40;55.70;;;;;;4149991;28;20634;-60
2022/01/11 10:55:34;;;;;;;0.00;0.00;;;11.00;55.50;;;;;;4136204;28;20053;-60
2022/01/11 10:58:18;;;;;;;0.00;0.00;;;10.70;55.80;;;;;;4134274;28;20059;-59
2022/01/11 11:00:50;;;;;;;0.00;0.00;;;10.30;56.20;;;;;;4149894;28;20041;-59
2022/01/11 11:03:14;;;;;;;0.00;0.00;;;10.40;56.50;;;;;;4149786;28;20164;-59
2022/01/11 11:05:53;;;;;;;0.00;0.00;;;10.60;56.90;;;;;;4163388;28;20128;-61
2022/01/11 11:08:23;;;;;;;0.00;0.00;;;10.70;56.30;;;;;;4146862;28;20073;-57
2022/01/11 11:10:56;;;;;;;0.00;0.00;;;11.00;55.90;;;;;;4148466;28;20045;-60
2022/01/11 11:13:28;;;;;;;0.00;0.00;;;11.50;55.60;;;;;;4166028;28;20565;-60
2022/01/11 11:15:53;;;;;;;0.00;0.00;;;11.80;53.90;;;;;;4151300;28;20050;-59
2022/01/11 11:18:27;;;;;;;0.00;0.00;;;12.00;54.10;;;;;;4149174;28;20045;-59
2022/01/11 11:20:51;;;;;;;0.00;0.00;;;11.50;53.20;;;;;;4192553;28;20044;-54
2022/01/11 11:23:15;;;;;;;0.00;0.00;;;11.40;53.40;;;;;;4193547;28;20091;-61
2022/01/11 11:25:37;;;;;;;0.00;0.00;;;11.40;53.40;;;;;;4179201;28;20056;-60
2022/01/11 11:27:59;;;;;;;0.00;0.00;;;11.90;52.90;;;;;;4164910;28;20099;-62
2022/01/11 11:30:23;;;;;;;0.00;0.00;;;12.20;51.90;;;;;;4164321;28;20045;-59
2022/01/11 11:32:53;;;;;;;0.00;0.00;;;12.20;52.30;;;;;;4179369;28;20052;-62
2022/01/11 11:35:16;;;;;;;0.00;0.00;;;12.30;52.00;;;;;;4179669;28;20544;-57
2022/01/11 11:37:39;;;;;;;0.00;0.00;;;11.90;52.40;;;;;;4179217;28;20060;-64
2022/01/11 11:40:07;;;;;;;0.00;0.00;;;11.30;52.90;;;;;;4179586;28;20060;-63
2022/01/11 11:42:31;;;;;;;0.00;0.00;;;11.20;53.60;;;;;;4178932;28;20045;-62
2022/01/11 11:44:58;;;;;;;0.00;0.00;;;11.10;53.50;;;;;;4193380;28;20060;-64
2022/01/11 11:47:30;;;;;;;;;;;10.70;54.10;;;;;;4179705;28;20056;-60
2022/01/11 11:49:55;;;;;;;0.00;0.00;;;9.90;55.10;;;;;;4179469;28;19930;-61
2022/01/11 11:52:27;;;;;;;0.00;0.00;;;9.50;56.30;;;;;;4178480;28;20414;-61
2022/01/11 11:54:56;;;;;;;0.00;0.00;;;9.20;56.90;;;;;;4179421;28;20045;-60
2022/01/11 11:57:21;;;;;;;0.00;0.00;;;9.10;57.60;;;;;;4179058;28;20147;-62
2022/01/11 11:59:53;;;;;;;0.00;0.00;;;8.90;57.80;;;;;;4179289;28;20059;-62
2022/01/11 12:02:38;;;;;;;0.00;0.00;;;8.70;58.30;;;;;;4178462;28;20045;-63
2022/01/11 12:05:03;;;;;;;0.00;0.00;;;8.50;59.20;;;;;;4179066;28;20427;-62
2022/01/11 12:07:38;;;;;;;0.00;0.00;;;8.60;59.60;;;;;;4178337;28;20136;-63
2022/01/11 12:10:01;;;;;;;0.00;0.00;;;8.60;59.10;;;;;;4179140;28;20119;-62
2022/01/11 12:12:43;;;;;;;0.00;0.00;;;8.30;59.40;;;;;;4176666;28;20140;-60
2022/01/11 12:15:32;;;;;;;0.00;0.00;;;8.20;59.90;;;;;;4170119;28;20053;-63
2022/01/11 12:17:57;;;;;;;0.00;0.00;;;8.30;60.30;;;;;;4178766;28;20049;-63
2022/01/11 12:20:43;;;;;;;0.00;0.00;;;8.20;59.90;;;;;;4192518;28;20048;-63
2022/01/11 12:23:07;;;;;;;0.00;0.00;;;8.10;60.00;;;;;;4164621;28;20053;-63
2022/01/11 12:25:33;;;;;;;0.00;0.00;;;8.00;60.90;;;;;;4178814;28;20045;-64
2022/01/11 12:28:01;;;;;;;0.00;0.00;;;8.00;61.20;;;;;;4192386;28;20175;-63
2022/01/11 12:30:26;;;;;;;0.00;0.00;;;8.10;60.80;;;;;;4162379;28;20049;-62
2022/01/11 12:33:12;;;;;;;0.00;0.00;;;8.10;60.70;;;;;;4172588;28;20041;-61
2022/01/11 12:35:50;;;;;;;0.00;0.00;;;8.00;61.10;;;;;;4157398;28;20479;-63
2022/01/11 12:38:15;;;;;;;0.00;0.00;;;7.80;60.70;;;;;;4168019;28;20120;-62
2022/01/11 12:40:40;;;;;;;0.00;0.00;;;7.60;61.50;;;;;;4178515;28;20079;-62
2022/01/11 12:43:18;;;;;;;0.00;0.00;;;7.50;61.80;;;;;;4178377;28;20087;-63
2022/01/11 12:46:13;;;;;;;0.00;0.00;;;7.50;62.10;;;;;;4192406;28;20567;-57
2022/01/11 12:48:49;;;;;;;0.00;0.00;;;7.70;61.90;;;;;;4117763;28;20110;-63
2022/01/11 12:51:28;;;;;;;0.00;0.00;;;7.60;62.00;;;;;;4122765;28;20164;-62
2022/01/11 12:54:18;;;;;;;0.00;0.00;;;7.50;62.40;;;;;;4114897;28;20047;-62
2022/01/11 12:56:42;;;;;;;0.00;0.00;;;7.50;62.70;;;;;;4132106;28;20048;-60